Time;durP1;ratioP1;P1;durP2;ratioP2;P2;SDS_P1;SDS_P2;PMS_P1;PMS_P2;Temp;Humidity;BMP_temperature;BMP_pressure;BME280_temperature;BME280_humidity;BME280_pressure;Samples;Min_cycle;Max_cycle;Signal;HPM_P1;HPM_P2
2022/10/24 00:00:13;;;;;;;6.30;2.10;;;14.70;99.90;;;;;;5115340;28;20082;-64
2022/10/24 00:02:41;;;;;;;3.47;1.88;;;14.80;99.90;;;;;;5113766;28;20052;-64
2022/10/24 00:05:08;;;;;;;4.05;1.70;;;14.80;99.90;;;;;;5113058;28;20044;-63
2022/10/24 00:07:35;;;;;;;4.85;1.90;;;14.80;99.90;;;;;;5114749;28;20108;-63
2022/10/24 00:10:02;;;;;;;4.80;1.80;;;14.70;99.90;;;;;;5113798;28;20088;-63
2022/10/24 00:12:29;;;;;;;7.72;2.20;;;14.70;99.90;;;;;;5113890;28;20097;-63
2022/10/24 00:14:56;;;;;;;4.32;2.17;;;14.70;99.90;;;;;;5114938;28;20047;-63
2022/10/24 00:17:23;;;;;;;4.15;2.03;;;14.70;99.90;;;;;;5113223;28;20100;-63
2022/10/24 00:19:53;;;;;;;4.90;2.08;;;14.70;99.90;;;;;;5095821;28;20083;-62
2022/10/24 00:22:19;;;;;;;5.97;2.80;;;14.70;99.90;;;;;;5114950;28;20384;-62
2022/10/24 00:24:46;;;;;;;4.85;2.13;;;14.60;99.90;;;;;;5095388;28;20079;-64
2022/10/24 00:27:13;;;;;;;6.10;2.00;;;14.60;99.90;;;;;;5114732;28;20051;-63
2022/10/24 00:29:40;;;;;;;6.45;1.90;;;14.70;99.90;;;;;;5114827;28;20088;-64
2022/10/24 00:32:07;;;;;;;7.90;2.13;;;14.60;99.90;;;;;;5113590;28;20051;-64
2022/10/24 00:34:34;;;;;;;11.75;2.40;;;14.70;99.90;;;;;;5134346;27;20431;-63
2022/10/24 00:37:02;;;;;;;3.33;1.63;;;14.60;99.90;;;;;;5134831;27;20051;-63
2022/10/24 00:39:29;;;;;;;8.15;2.28;;;14.60;99.90;;;;;;5115893;27;20047;-63
2022/10/24 00:41:57;;;;;;;5.47;2.10;;;14.60;99.90;;;;;;5134396;27;20406;-62
2022/10/24 00:44:26;;;;;;;3.95;1.98;;;14.50;99.90;;;;;;5116424;27;20051;-63
2022/10/24 00:46:56;;;;;;;5.65;1.88;;;14.50;99.90;;;;;;5115253;27;20478;-63
2022/10/24 00:49:28;;;;;;;4.00;1.90;;;14.50;99.90;;;;;;5134273;27;20056;-63
2022/10/24 00:52:00;;;;;;;3.78;2.28;;;14.40;99.90;;;;;;5115949;27;20570;-62
2022/10/24 00:54:29;;;;;;;6.47;1.90;;;14.50;99.90;;;;;;5115558;27;20050;-63
2022/10/24 00:57:03;;;;;;;5.68;1.92;;;14.40;99.90;;;;;;5116049;27;20126;-64
2022/10/24 00:59:31;;;;;;;3.35;1.88;;;14.50;99.90;;;;;;5133261;27;20086;-63
2022/10/24 01:01:58;;;;;;;4.35;1.60;;;14.50;99.90;;;;;;5114601;27;20123;-63
2022/10/24 01:04:25;;;;;;;5.18;1.90;;;14.50;99.90;;;;;;5111576;28;20135;-63
2022/10/24 01:07:10;;;;;;;6.22;1.92;;;14.50;99.90;;;;;;5113080;28;20444;-63
2022/10/24 01:09:58;;;;;;;7.50;2.33;;;14.50;99.90;;;;;;5095947;28;20449;-63
2022/10/24 01:12:33;;;;;;;6.43;2.20;;;14.50;99.90;;;;;;5095563;28;20082;-64
2022/10/24 01:15:09;;;;;;;4.78;1.90;;;14.50;99.90;;;;;;5113199;28;20039;-63
2022/10/24 01:17:42;;;;;;;6.28;1.80;;;14.50;99.90;;;;;;5101369;27;20046;-63
2022/10/24 01:20:40;;;;;;;4.35;1.70;;;14.40;99.90;;;;;;5115720;27;20055;-63
2022/10/24 01:23:25;;;;;;;4.10;1.50;;;14.40;99.90;;;;;;5133088;27;20046;-63
2022/10/24 01:26:07;;;;;;;5.95;1.40;;;14.50;99.90;;;;;;5134454;27;20079;-63
2022/10/24 01:28:40;;;;;;;6.10;1.88;;;14.50;99.90;;;;;;5114946;27;20112;-63
2022/10/24 01:31:14;;;;;;;4.20;1.42;;;14.50;99.90;;;;;;5134178;27;20383;-63
2022/10/24 01:33:46;;;;;;;3.40;1.30;;;14.50;99.90;;;;;;5098557;28;20059;-63
2022/10/24 01:36:17;;;;;;;6.43;1.73;;;14.50;99.90;;;;;;5094564;28;20059;-63
2022/10/24 01:38:47;;;;;;;6.38;1.75;;;14.50;99.90;;;;;;5113321;28;20093;-63
2022/10/24 01:41:18;;;;;;;4.75;1.55;;;14.50;99.90;;;;;;5113487;28;20048;-63
2022/10/24 01:43:51;;;;;;;6.00;1.75;;;14.50;99.90;;;;;;5112501;28;20515;-64
2022/10/24 01:46:24;;;;;;;4.20;1.95;;;14.50;99.90;;;;;;5095299;28;20437;-63
2022/10/24 01:48:56;;;;;;;4.38;1.77;;;14.60;99.90;;;;;;5129405;28;20050;-63
2022/10/24 01:51:27;;;;;;;7.03;1.77;;;14.60;99.90;;;;;;5115567;28;20055;-63
2022/10/24 01:53:55;;;;;;;4.97;1.83;;;14.60;99.90;;;;;;5133678;28;20482;-63
2022/10/24 01:56:24;;;;;;;6.05;2.03;;;14.70;99.90;;;;;;5115159;28;20055;-63
2022/10/24 01:58:51;;;;;;;6.32;1.90;;;14.70;99.90;;;;;;5115253;28;20143;-63
2022/10/24 02:01:24;;;;;;;4.65;2.00;;;14.80;99.90;;;;;;5113827;28;20090;-62
2022/10/24 02:03:54;;;;;;;4.18;1.95;;;14.80;99.90;;;;;;5115404;27;20058;-62
2022/10/24 02:06:23;;;;;;;;;;;14.90;99.90;;;;;;5120099;27;20092;-63
2022/10/24 02:08:54;;;;;;;5.15;2.20;;;14.90;99.90;;;;;;5119666;27;19984;-63
2022/10/24 02:11:21;;;;;;;7.50;2.10;;;14.90;99.90;;;;;;5137028;27;20123;-63
2022/10/24 02:13:56;;;;;;;4.05;1.95;;;15.00;99.90;;;;;;5118416;27;20055;-62
2022/10/24 02:16:24;;;;;;;7.65;2.30;;;15.00;99.90;;;;;;5137529;27;20059;-63
2022/10/24 02:18:54;;;;;;;6.60;2.75;;;15.00;99.90;;;;;;5118568;27;20047;-63
2022/10/24 02:21:31;;;;;;;9.93;2.40;;;15.00;99.90;;;;;;5119491;27;20055;-63
2022/10/24 02:24:02;;;;;;;6.60;2.25;;;15.00;99.90;;;;;;5119179;27;20399;-63
2022/10/24 02:26:33;;;;;;;8.60;2.25;;;15.10;99.90;;;;;;5118726;27;20432;-63
2022/10/24 02:29:06;;;;;;;5.00;2.03;;;15.10;99.90;;;;;;5137495;27;20088;-63
2022/10/24 02:31:41;;;;;;;6.93;2.45;;;15.10;99.90;;;;;;5114073;28;20055;-63
2022/10/24 02:34:10;;;;;;;3.40;1.88;;;15.10;99.90;;;;;;5115491;28;20100;-63
2022/10/24 02:36:39;;;;;;;6.93;2.10;;;15.10;99.90;;;;;;5099067;28;20048;-62
2022/10/24 02:39:08;;;;;;;8.05;2.35;;;15.20;99.90;;;;;;5114796;28;20092;-62
2022/10/24 02:41:39;;;;;;;10.77;2.60;;;15.20;99.90;;;;;;5115691;28;20560;-63
2022/10/24 02:44:07;;;;;;;9.77;2.30;;;15.20;99.90;;;;;;5116272;28;20052;-63
2022/10/24 02:46:35;;;;;;;5.32;2.25;;;15.20;99.90;;;;;;5131758;27;20519;-63
2022/10/24 02:49:04;;;;;;;7.13;2.55;;;15.20;99.90;;;;;;5119095;27;20423;-63
2022/10/24 02:51:35;;;;;;;9.35;2.50;;;15.20;99.90;;;;;;5137186;27;20051;-63
2022/10/24 02:54:02;;;;;;;;;;;15.20;99.90;;;;;;5136772;27;20101;-62
2022/10/24 02:56:29;;;;;;;5.80;2.13;;;15.20;99.90;;;;;;5136764;27;19950;-63
2022/10/24 02:58:56;;;;;;;6.05;2.53;;;15.30;99.90;;;;;;5136008;27;20100;-63
2022/10/24 03:01:23;;;;;;;5.78;2.47;;;15.30;99.90;;;;;;5117216;27;20047;-64
2022/10/24 03:03:51;;;;;;;5.43;1.73;;;15.40;99.90;;;;;;5118230;27;20051;-64
2022/10/24 03:06:18;;;;;;;6.03;2.22;;;15.30;99.90;;;;;;5136127;27;20047;-63
2022/10/24 03:08:45;;;;;;;6.95;2.40;;;15.40;99.90;;;;;;5134209;27;20104;-62
2022/10/24 03:11:12;;;;;;;4.68;2.08;;;15.40;99.90;;;;;;5114700;28;20519;-63
2022/10/24 03:13:39;;;;;;;8.63;1.85;;;15.30;99.90;;;;;;5113967;28;20448;-63
2022/10/24 03:16:06;;;;;;;6.07;2.40;;;15.30;99.90;;;;;;5114559;28;20471;-63
2022/10/24 03:18:33;;;;;;;5.63;2.22;;;15.30;99.90;;;;;;5114618;28;20096;-63
2022/10/24 03:21:01;;;;;;;19.55;3.38;;;15.40;99.90;;;;;;5113897;28;20092;-63
2022/10/24 03:23:28;;;;;;;8.93;2.50;;;15.40;99.90;;;;;;5115734;28;20097;-63
2022/10/24 03:25:55;;;;;;;4.50;1.83;;;15.40;99.90;;;;;;5114480;28;20054;-62
2022/10/24 03:28:22;;;;;;;5.85;1.80;;;15.40;99.90;;;;;;5114941;27;20097;-63
2022/10/24 03:30:49;;;;;;;4.75;1.98;;;15.40;99.90;;;;;;5114667;28;20102;-63
2022/10/24 03:33:16;;;;;;;8.73;2.13;;;15.40;99.90;;;;;;5114170;28;20055;-62
2022/10/24 03:35:44;;;;;;;3.85;2.00;;;15.40;99.90;;;;;;5114609;28;20055;-62
2022/10/24 03:38:12;;;;;;;6.45;2.10;;;15.40;99.90;;;;;;5115561;28;20456;-63
2022/10/24 03:40:39;;;;;;;6.45;2.75;;;15.40;99.90;;;;;;5115464;27;20048;-63
2022/10/24 03:43:06;;;;;;;10.95;2.42;;;15.40;99.90;;;;;;5114276;28;20052;-63
2022/10/24 03:45:32;;;;;;;7.35;2.40;;;15.40;99.90;;;;;;5115381;28;20155;-63
2022/10/24 03:47:59;;;;;;;6.90;2.60;;;15.40;99.90;;;;;;5115500;28;20097;-63
2022/10/24 03:50:26;;;;;;;11.35;2.20;;;15.40;99.90;;;;;;5114462;28;20108;-63
2022/10/24 03:52:53;;;;;;;4.82;1.98;;;15.50;99.90;;;;;;5115164;28;20416;-63
2022/10/24 03:55:21;;;;;;;8.88;2.63;;;15.50;99.90;;;;;;5099530;28;20056;-64
2022/10/24 03:57:48;;;;;;;4.82;1.88;;;15.50;99.90;;;;;;5096338;28;20510;-64
2022/10/24 04:00:17;;;;;;;5.10;2.45;;;15.60;99.90;;;;;;5096900;28;20082;-62
2022/10/24 04:02:44;;;;;;;9.07;2.53;;;15.50;99.90;;;;;;5095589;28;20055;-63
2022/10/24 04:05:11;;;;;;;4.45;2.00;;;15.50;99.90;;;;;;5114983;28;20100;-63
2022/10/24 04:07:38;;;;;;;5.68;2.30;;;15.50;99.90;;;;;;5114899;28;20083;-63
2022/10/24 04:10:06;;;;;;;7.80;2.25;;;15.50;99.90;;;;;;5095669;28;20206;-63
2022/10/24 04:12:35;;;;;;;5.70;2.17;;;15.50;99.90;;;;;;5097175;28;20419;-63
2022/10/24 04:15:02;;;;;;;5.53;2.65;;;15.50;99.90;;;;;;5114727;28;20540;-63
2022/10/24 04:17:28;;;;;;;5.50;2.65;;;15.50;99.90;;;;;;5096015;28;20440;-64
2022/10/24 04:19:55;;;;;;;9.45;2.17;;;15.50;99.90;;;;;;5096390;28;20083;-64
2022/10/24 04:22:22;;;;;;;11.50;2.60;;;15.40;99.90;;;;;;5096553;28;20055;-64
2022/10/24 04:24:49;;;;;;;8.38;2.55;;;15.30;99.90;;;;;;5095414;28;20051;-64
2022/10/24 04:27:16;;;;;;;9.10;2.78;;;15.20;99.90;;;;;;5113548;27;20541;-63
2022/10/24 04:29:44;;;;;;;7.72;2.30;;;15.20;99.90;;;;;;5114467;28;20445;-63
2022/10/24 04:32:11;;;;;;;7.72;2.40;;;15.10;99.90;;;;;;5112404;28;20048;-63
2022/10/24 04:34:38;;;;;;;10.43;2.30;;;15.10;99.90;;;;;;5112644;28;20108;-63
2022/10/24 04:37:05;;;;;;;6.13;2.72;;;15.00;99.90;;;;;;5114308;28;20040;-63
2022/10/24 04:39:32;;;;;;;9.60;2.28;;;14.90;99.90;;;;;;5107733;28;20051;-63
2022/10/24 04:41:58;;;;;;;9.35;2.45;;;14.90;99.90;;;;;;5095767;28;20104;-63
2022/10/24 04:44:25;;;;;;;7.43;2.28;;;14.80;99.90;;;;;;5096172;28;20101;-63
2022/10/24 04:46:54;;;;;;;5.85;2.70;;;14.80;99.90;;;;;;5095206;28;20100;-64
2022/10/24 04:49:20;;;;;;;7.40;2.42;;;14.80;99.90;;;;;;5114446;28;20051;-63
2022/10/24 04:51:47;;;;;;;7.70;2.40;;;14.70;99.90;;;;;;5114059;28;20043;-63
2022/10/24 04:54:14;;;;;;;10.18;2.38;;;14.80;99.90;;;;;;5095369;28;20059;-64
2022/10/24 04:56:41;;;;;;;6.80;2.30;;;14.70;99.90;;;;;;5096050;28;20077;-63
2022/10/24 04:59:08;;;;;;;9.10;2.63;;;14.80;99.90;;;;;;5112864;27;20063;-64
2022/10/24 05:01:35;;;;;;;4.88;2.53;;;14.70;99.90;;;;;;5094012;28;20051;-62
2022/10/24 05:04:03;;;;;;;6.78;2.35;;;14.70;99.90;;;;;;5093763;27;20055;-62
2022/10/24 05:06:30;;;;;;;7.55;2.53;;;14.70;99.90;;;;;;5092170;28;20087;-62
2022/10/24 05:08:57;;;;;;;5.15;2.22;;;14.70;99.90;;;;;;5093466;28;20059;-62
2022/10/24 05:11:24;;;;;;;4.95;2.05;;;14.60;99.90;;;;;;5093446;28;20047;-62
2022/10/24 05:13:50;;;;;;;11.50;3.00;;;14.60;99.90;;;;;;5112445;27;20399;-63
2022/10/24 05:16:17;;;;;;;5.90;1.98;;;14.50;99.90;;;;;;5100416;28;20075;-63
2022/10/24 05:18:44;;;;;;;5.97;2.47;;;14.50;99.90;;;;;;5125934;27;20119;-62
2022/10/24 05:21:12;;;;;;;6.22;1.95;;;14.40;99.90;;;;;;5105175;28;20491;-62
2022/10/24 05:23:39;;;;;;;4.82;2.38;;;14.40;99.90;;;;;;5093925;28;20104;-63
2022/10/24 05:26:06;;;;;;;8.38;2.33;;;14.50;99.90;;;;;;5093136;28;20048;-63
2022/10/24 05:28:33;;;;;;;9.85;2.15;;;14.50;99.90;;;;;;5110931;28;20096;-64
2022/10/24 05:31:00;;;;;;;4.32;1.92;;;14.50;99.90;;;;;;5111464;28;20039;-63
2022/10/24 05:33:27;;;;;;;5.97;2.15;;;14.50;99.90;;;;;;5112221;28;20047;-63
2022/10/24 05:35:54;;;;;;;5.53;2.08;;;14.40;99.90;;;;;;5095337;28;20096;-63
2022/10/24 05:38:22;;;;;;;8.50;2.35;;;14.30;99.90;;;;;;5093818;28;20071;-63
2022/10/24 05:40:50;;;;;;;5.40;2.05;;;14.30;99.90;;;;;;5111248;28;20048;-63
2022/10/24 05:43:17;;;;;;;11.00;2.95;;;14.30;99.90;;;;;;5109598;28;20052;-63
2022/10/24 05:45:45;;;;;;;5.78;2.38;;;14.30;99.90;;;;;;5111220;28;20087;-63
2022/10/24 05:48:12;;;;;;;6.95;2.20;;;14.30;99.90;;;;;;5092846;28;20548;-63
2022/10/24 05:50:38;;;;;;;6.18;2.22;;;14.30;99.90;;;;;;5111070;28;20055;-63
2022/10/24 05:53:07;;;;;;;8.13;2.50;;;14.40;99.90;;;;;;5110758;28;20088;-64
2022/10/24 05:55:36;;;;;;;5.68;2.00;;;14.40;99.90;;;;;;5092948;28;20051;-63
2022/10/24 05:58:02;;;;;;;7.25;2.35;;;14.40;99.90;;;;;;5111398;28;20040;-62
2022/10/24 06:00:32;;;;;;;7.70;2.20;;;14.50;99.90;;;;;;5092899;28;20119;-63
2022/10/24 06:02:59;;;;;;;6.17;1.80;;;14.60;99.90;;;;;;5115747;28;20051;-62
2022/10/24 06:05:26;;;;;;;7.15;2.22;;;14.60;99.90;;;;;;5125237;28;20142;-62
2022/10/24 06:07:53;;;;;;;8.73;1.90;;;14.60;99.90;;;;;;5093644;28;20424;-62
2022/10/24 06:10:20;;;;;;;5.88;2.00;;;14.70;99.90;;;;;;5110053;28;20047;-63
2022/10/24 06:12:48;;;;;;;7.05;2.13;;;14.70;99.90;;;;;;5092862;28;20074;-63
2022/10/24 06:15:15;;;;;;;6.70;2.15;;;14.70;99.90;;;;;;5111891;28;20047;-63
2022/10/24 06:17:42;;;;;;;6.22;2.10;;;14.80;99.90;;;;;;5092565;28;20113;-63
2022/10/24 06:20:10;;;;;;;9.48;2.03;;;14.80;99.90;;;;;;5092516;28;20089;-63
2022/10/24 06:22:37;;;;;;;5.72;1.65;;;14.70;99.90;;;;;;5107471;28;20097;-63
2022/10/24 06:25:04;;;;;;;9.25;2.10;;;14.70;99.90;;;;;;5112770;28;20510;-63
2022/10/24 06:27:31;;;;;;;7.30;2.05;;;14.70;99.90;;;;;;5097585;28;20083;-62
2022/10/24 06:29:59;;;;;;;4.10;1.98;;;14.60;99.90;;;;;;5113657;28;20047;-62
2022/10/24 06:32:26;;;;;;;10.90;2.15;;;14.60;99.90;;;;;;5092192;28;20056;-63
2022/10/24 06:34:53;;;;;;;10.27;2.10;;;14.70;99.90;;;;;;5092363;28;20411;-63
2022/10/24 06:37:20;;;;;;;4.55;1.75;;;14.60;99.90;;;;;;5113068;28;20093;-63
2022/10/24 06:39:46;;;;;;;3.97;1.63;;;14.60;99.90;;;;;;5118573;28;20096;-64
2022/10/24 06:42:14;;;;;;;5.50;2.00;;;14.60;99.90;;;;;;5093184;28;20047;-63
2022/10/24 06:44:41;;;;;;;3.60;1.75;;;14.60;99.90;;;;;;5092892;28;20380;-63
2022/10/24 06:47:09;;;;;;;9.93;1.65;;;14.60;99.90;;;;;;5110254;28;20043;-63
2022/10/24 06:49:36;;;;;;;6.03;2.05;;;14.70;99.90;;;;;;5110700;28;20058;-63
2022/10/24 06:52:03;;;;;;;6.03;2.03;;;14.80;99.90;;;;;;5122420;27;20051;-62
2022/10/24 06:54:30;;;;;;;9.30;2.03;;;14.80;99.90;;;;;;5096688;28;20055;-63
2022/10/24 06:56:57;;;;;;;7.15;1.88;;;14.90;99.90;;;;;;5104325;27;20122;-64
2022/10/24 06:59:25;;;;;;;9.63;2.38;;;15.00;99.90;;;;;;5113291;28;20094;-64
2022/10/24 07:01:52;;;;;;;10.75;2.15;;;15.10;99.90;;;;;;5114041;27;20048;-64
2022/10/24 07:04:20;;;;;;;4.47;2.13;;;15.20;99.90;;;;;;5126276;27;20038;-63
2022/10/24 07:06:47;;;;;;;5.85;1.52;;;15.20;99.90;;;;;;5116564;27;20059;-63
2022/10/24 07:09:14;;;;;;;6.88;1.70;;;15.30;99.90;;;;;;5113510;28;20044;-63
2022/10/24 07:11:41;;;;;;;7.25;1.60;;;15.40;99.90;;;;;;5096549;28;20043;-63
2022/10/24 07:14:08;;;;;;;4.25;1.60;;;15.50;99.90;;;;;;5094843;28;20131;-64
2022/10/24 07:16:35;;;;;;;6.90;1.92;;;15.50;99.90;;;;;;5096689;27;20051;-63
2022/10/24 07:19:02;;;;;;;8.77;1.90;;;15.50;99.90;;;;;;5102081;28;20066;-63
2022/10/24 07:21:32;;;;;;;7.13;2.53;;;15.50;99.90;;;;;;5111787;27;20100;-63
2022/10/24 07:24:01;;;;;;;3.35;1.60;;;15.50;99.90;;;;;;5096271;28;21506;-62
2022/10/24 07:26:28;;;;;;;5.55;1.60;;;15.60;99.90;;;;;;5095266;28;20052;-63
2022/10/24 07:28:59;;;;;;;6.00;1.77;;;15.70;99.90;;;;;;5094081;28;20044;-63
2022/10/24 07:31:27;;;;;;;6.65;1.33;;;15.70;99.90;;;;;;5096004;28;20047;-63
2022/10/24 07:33:55;;;;;;;7.70;1.88;;;15.90;99.90;;;;;;5093159;28;20087;-63
2022/10/24 07:36:24;;;;;;;5.97;1.90;;;16.80;99.90;;;;;;5095416;28;20056;-63
2022/10/24 07:38:54;;;;;;;3.88;1.55;;;17.90;99.90;;;;;;5094914;28;20058;-63
2022/10/24 07:41:23;;;;;;;4.85;1.75;;;18.90;99.90;;;;;;5112130;28;20048;-63
2022/10/24 07:43:50;;;;;;;6.68;2.13;;;19.50;99.90;;;;;;5112018;28;20112;-63
2022/10/24 07:46:19;;;;;;;4.05;1.50;;;20.00;99.90;;;;;;5095114;28;20142;-62
2022/10/24 07:48:48;;;;;;;4.20;1.70;;;20.30;99.90;;;;;;5111994;28;20047;-63
2022/10/24 07:51:15;;;;;;;6.38;1.48;;;20.10;99.90;;;;;;5112948;27;20052;-64
2022/10/24 07:53:43;;;;;;;5.28;1.50;;;20.10;99.90;;;;;;5093569;27;20386;-63
2022/10/24 07:56:14;;;;;;;5.72;1.30;;;19.40;99.90;;;;;;5111768;28;20521;-64
2022/10/24 07:58:41;;;;;;;5.38;1.30;;;18.60;99.90;;;;;;5113325;28;20479;-64
2022/10/24 08:01:11;;;;;;;7.28;1.65;;;18.10;99.90;;;;;;5094649;28;20143;-63
2022/10/24 08:03:38;;;;;;;3.58;1.20;;;17.70;99.90;;;;;;5098567;27;20120;-63
2022/10/24 08:06:06;;;;;;;6.20;1.50;;;17.50;99.90;;;;;;5116857;27;20107;-63
2022/10/24 08:08:33;;;;;;;7.72;2.25;;;17.50;99.90;;;;;;5116429;27;20127;-64
2022/10/24 08:11:00;;;;;;;4.47;1.33;;;17.60;99.90;;;;;;5099186;28;20396;-64
2022/10/24 08:13:28;;;;;;;5.43;1.83;;;17.50;99.90;;;;;;5096403;28;20104;-64
2022/10/24 08:15:55;;;;;;;9.25;1.52;;;17.40;99.90;;;;;;5113913;28;20052;-63
2022/10/24 08:18:22;;;;;;;7.38;1.92;;;17.50;99.90;;;;;;5114791;28;20044;-63
2022/10/24 08:20:58;;;;;;;7.25;1.63;;;18.40;99.90;;;;;;5096760;28;20055;-64
2022/10/24 08:23:25;;;;;;;6.13;1.50;;;18.50;99.90;;;;;;5095364;28;20048;-64
2022/10/24 08:25:51;;;;;;;3.78;1.58;;;18.10;99.90;;;;;;5096035;28;20063;-63
2022/10/24 08:28:18;;;;;;;6.20;1.80;;;17.60;99.90;;;;;;5114358;28;20051;-64
2022/10/24 08:30:55;;;;;;;8.68;1.65;;;17.40;99.90;;;;;;5095547;28;20475;-63
2022/10/24 08:33:22;;;;;;;3.70;1.35;;;17.40;99.90;;;;;;5095155;28;20490;-63
2022/10/24 08:35:48;;;;;;;3.78;1.02;;;17.40;99.90;;;;;;5114440;28;20044;-63
2022/10/24 08:38:15;;;;;;;8.68;1.77;;;17.40;99.90;;;;;;5113415;28;20075;-63
2022/10/24 08:40:42;;;;;;;7.85;1.80;;;17.20;99.90;;;;;;5114349;28;20051;-64
2022/10/24 08:43:11;;;;;;;9.07;2.08;;;17.20;99.90;;;;;;5113824;28;20441;-64
2022/10/24 08:45:45;;;;;;;4.60;1.55;;;17.80;99.90;;;;;;5113733;28;20096;-64
2022/10/24 08:48:16;;;;;;;6.65;1.80;;;18.40;99.90;;;;;;5095865;28;20055;-64
2022/10/24 08:50:49;;;;;;;7.88;1.45;;;18.50;99.90;;;;;;5095878;28;20083;-63
2022/10/24 08:53:22;;;;;;;8.50;2.03;;;18.20;99.90;;;;;;5113241;28;20446;-64
2022/10/24 08:55:52;;;;;;;6.32;1.20;;;18.40;99.90;;;;;;5095863;28;20052;-63
2022/10/24 08:58:24;;;;;;;7.93;1.50;;;18.40;99.90;;;;;;5113204;28;20376;-63
2022/10/24 09:00:52;;;;;;;8.02;1.50;;;18.60;99.90;;;;;;5095913;28;20067;-63
2022/10/24 09:03:26;;;;;;;10.73;2.40;;;18.40;99.90;;;;;;5112518;28;20044;-63
2022/10/24 09:05:57;;;;;;;5.63;1.40;;;18.50;99.90;;;;;;5112041;28;20075;-64
2022/10/24 09:08:30;;;;;;;8.45;1.85;;;19.50;99.90;;;;;;5094491;28;20483;-63
2022/10/24 09:11:00;;;;;;;12.00;1.50;;;20.00;99.90;;;;;;5113786;28;20051;-63
2022/10/24 09:13:28;;;;;;;8.82;1.90;;;19.50;99.90;;;;;;5093678;28;20083;-63
2022/10/24 09:15:57;;;;;;;7.20;1.60;;;18.80;99.90;;;;;;5113371;28;20101;-63
2022/10/24 09:18:28;;;;;;;7.68;2.00;;;18.10;99.90;;;;;;5095470;28;20043;-63
2022/10/24 09:20:55;;;;;;;4.93;1.77;;;17.70;99.90;;;;;;5094767;28;20047;-63
2022/10/24 09:23:24;;;;;;;7.20;1.80;;;17.60;99.90;;;;;;5095440;28;20051;-64
2022/10/24 09:25:54;;;;;;;8.57;1.75;;;18.60;99.90;;;;;;5113700;28;20048;-62
2022/10/24 09:28:21;;;;;;;8.07;1.75;;;19.30;99.90;;;;;;5112877;28;20051;-62
2022/10/24 09:30:48;;;;;;;6.85;1.83;;;19.30;99.90;;;;;;5113199;28;20097;-63
2022/10/24 09:33:27;;;;;;;5.88;1.67;;;19.40;99.90;;;;;;5112464;28;20540;-63
2022/10/24 09:35:57;;;;;;;9.05;2.10;;;20.50;99.90;;;;;;5095071;28;20075;-64
2022/10/24 09:38:32;;;;;;;5.55;1.80;;;21.40;99.90;;;;;;5113726;28;20384;-64
2022/10/24 09:41:02;;;;;;;8.20;1.52;;;22.40;99.90;;;;;;5112517;28;20043;-64
2022/10/24 09:43:37;;;;;;;3.45;1.50;;;23.10;99.90;;;;;;5113237;28;20048;-63
2022/10/24 09:46:06;;;;;;;4.13;1.40;;;23.00;99.90;;;;;;5095813;28;20112;-63
2022/10/24 09:48:45;;;;;;;6.90;1.60;;;23.40;99.90;;;;;;5094043;28;20469;-63
2022/10/24 09:51:24;;;;;;;4.07;1.55;;;23.40;99.90;;;;;;5095236;28;20100;-63
2022/10/24 09:54:04;;;;;;;10.20;1.93;;;22.90;99.90;;;;;;5113033;28;20048;-62
2022/10/24 09:56:38;;;;;;;5.55;1.40;;;22.80;99.90;;;;;;5094421;28;20085;-63
2022/10/24 09:59:29;;;;;;;5.25;1.27;;;21.90;99.90;;;;;;5095088;28;20101;-63
2022/10/24 10:02:17;;;;;;;7.05;1.33;;;22.10;99.90;;;;;;5102651;28;20101;-64
2022/10/24 10:04:47;;;;;;;5.07;1.70;;;21.20;99.90;;;;;;5095022;28;20399;-64
2022/10/24 10:07:16;;;;;;;5.63;1.73;;;20.30;99.90;;;;;;5113271;28;20054;-64
2022/10/24 10:09:50;;;;;;;6.63;1.75;;;19.50;99.90;;;;;;5112020;28;20539;-64
2022/10/24 10:12:28;;;;;;;5.88;1.50;;;18.90;99.90;;;;;;5112928;28;20047;-64
2022/10/24 10:14:55;;;;;;;9.48;1.92;;;18.40;99.90;;;;;;5112938;28;20487;-63
2022/10/24 10:17:25;;;;;;;3.67;2.00;;;18.10;99.90;;;;;;5094277;28;20495;-63
2022/10/24 10:19:54;;;;;;;7.97;1.60;;;18.00;99.90;;;;;;5112980;28;20461;-63
2022/10/24 10:22:25;;;;;;;10.90;2.15;;;18.30;99.90;;;;;;5094770;28;20478;-63
2022/10/24 10:24:52;;;;;;;5.50;1.55;;;18.60;99.90;;;;;;5112605;28;20051;-62
2022/10/24 10:27:29;;;;;;;8.25;1.92;;;18.40;99.90;;;;;;5116714;28;20509;-63
2022/10/24 10:30:20;;;;;;;2.83;1.40;;;18.30;99.90;;;;;;5096329;28;20043;-62
2022/10/24 10:33:01;;;;;;;;;;;17.90;99.90;;;;;;5099129;28;20117;-64
2022/10/24 10:35:35;;;;;;;5.88;1.45;;;17.40;99.90;;;;;;5095111;28;19973;-63
2022/10/24 10:38:10;;;;;;;7.00;1.92;;;17.00;99.90;;;;;;5097561;28;20047;-63
2022/10/24 10:40:44;;;;;;;7.20;1.70;;;16.80;99.90;;;;;;5116725;28;20104;-63
2022/10/24 10:43:27;;;;;;;8.73;2.08;;;16.50;99.90;;;;;;5116178;28;20079;-64
2022/10/24 10:46:10;;;;;;;5.85;1.60;;;16.30;99.90;;;;;;5097667;28;20059;-63
2022/10/24 10:48:48;;;;;;;8.52;2.03;;;16.20;99.90;;;;;;5098495;28;20082;-63
2022/10/24 10:51:24;;;;;;;10.05;1.55;;;15.90;99.90;;;;;;5115660;28;20127;-63
2022/10/24 10:54:02;;;;;;;6.13;2.08;;;15.80;99.90;;;;;;5098491;28;20403;-63
2022/10/24 10:56:34;;;;;;;7.30;1.88;;;15.70;99.90;;;;;;5116383;28;20056;-63
2022/10/24 10:59:15;;;;;;;5.25;1.98;;;15.70;99.90;;;;;;5097357;28;20483;-63
2022/10/24 11:01:50;;;;;;;8.27;2.03;;;16.20;99.90;;;;;;5098382;28;20087;-64
2022/10/24 11:04:23;;;;;;;5.22;1.70;;;16.80;99.90;;;;;;5097600;28;20052;-63
2022/10/24 11:07:02;;;;;;;6.28;1.90;;;17.50;99.90;;;;;;5114572;28;20468;-62
2022/10/24 11:09:33;;;;;;;7.88;1.85;;;17.80;99.90;;;;;;5115134;28;20101;-64
2022/10/24 11:12:06;;;;;;;8.75;1.40;;;18.00;99.90;;;;;;5097034;28;20104;-63
2022/10/24 11:14:36;;;;;;;5.85;2.03;;;18.60;99.90;;;;;;5097601;28;20056;-62
2022/10/24 11:17:11;;;;;;;8.50;1.97;;;18.90;99.90;;;;;;5116064;28;20464;-63
2022/10/24 11:19:49;;;;;;;7.40;1.92;;;19.10;99.90;;;;;;5096844;28;20285;-62
2022/10/24 11:22:22;;;;;;;7.88;1.83;;;19.50;99.90;;;;;;5097217;28;20127;-63
2022/10/24 11:24:57;;;;;;;6.97;1.30;;;19.00;99.90;;;;;;5115570;28;20052;-63
2022/10/24 11:27:29;;;;;;;4.05;1.55;;;18.40;99.90;;;;;;5115075;28;20388;-63
2022/10/24 11:30:02;;;;;;;16.77;2.05;;;17.80;99.90;;;;;;5097359;28;20047;-62
2022/10/24 11:32:35;;;;;;;9.68;2.05;;;17.70;99.90;;;;;;5115384;28;20458;-63
2022/10/24 11:35:07;;;;;;;10.88;2.13;;;17.70;99.90;;;;;;5096422;28;20087;-63
2022/10/24 11:37:40;;;;;;;14.10;2.25;;;17.60;99.90;;;;;;5115513;28;20467;-63
2022/10/24 11:40:13;;;;;;;9.98;2.05;;;17.40;99.90;;;;;;5096698;28;20055;-64
2022/10/24 11:42:47;;;;;;;8.10;1.50;;;17.20;99.90;;;;;;5097077;28;20055;-63
2022/10/24 11:45:16;;;;;;;7.03;1.58;;;17.00;99.90;;;;;;5114494;28;20050;-62
2022/10/24 11:47:52;;;;;;;6.53;1.92;;;16.90;99.90;;;;;;5096549;28;20108;-63
2022/10/24 11:50:27;;;;;;;7.75;1.73;;;16.90;99.90;;;;;;5097085;28;20081;-63
2022/10/24 11:53:01;;;;;;;6.68;2.00;;;17.00;99.90;;;;;;5115406;28;20060;-63
2022/10/24 11:55:36;;;;;;;8.32;1.50;;;17.00;99.90;;;;;;5096648;28;20105;-63
2022/10/24 11:58:07;;;;;;;3.75;1.55;;;16.90;99.90;;;;;;5097273;28;20087;-63
2022/10/24 12:00:52;;;;;;;8.20;1.50;;;16.70;99.90;;;;;;5097126;28;20570;-63
2022/10/24 12:03:46;;;;;;;3.22;1.50;;;16.70;99.90;;;;;;5114056;28;20509;-63
2022/10/24 12:06:42;;;;;;;10.35;1.92;;;16.60;99.90;;;;;;5108325;28;20097;-63
2022/10/24 12:09:30;;;;;;;6.40;1.70;;;16.80;99.90;;;;;;5111813;28;20046;-63
2022/10/24 12:12:15;;;;;;;7.65;1.77;;;16.80;99.90;;;;;;5096835;28;20055;-62
2022/10/24 12:14:54;;;;;;;5.03;1.48;;;16.80;99.90;;;;;;5096887;28;20551;-63
2022/10/24 12:17:49;;;;;;;6.78;1.60;;;17.00;99.90;;;;;;5096380;28;20056;-63
2022/10/24 12:20:19;;;;;;;7.10;1.80;;;17.10;99.90;;;;;;5096498;28;20044;-63
2022/10/24 12:22:47;;;;;;;;;;;17.30;99.90;;;;;;5095774;28;20052;-64
2022/10/24 12:25:28;;;;;;;7.85;2.40;;;17.80;99.90;;;;;;5096656;28;19920;-63
2022/10/24 12:27:57;;;;;;;6.22;1.65;;;18.40;99.90;;;;;;5114760;28;20551;-63
2022/10/24 12:30:26;;;;;;;5.72;1.50;;;18.30;99.90;;;;;;5113698;28;20491;-64
2022/10/24 12:32:56;;;;;;;6.95;2.20;;;18.20;99.90;;;;;;5114449;28;20051;-62
2022/10/24 12:35:47;;;;;;;3.83;1.35;;;17.90;99.90;;;;;;5096273;28;20108;-64
2022/10/24 12:38:34;;;;;;;5.85;1.90;;;17.60;99.90;;;;;;5095767;28;20059;-63
2022/10/24 12:41:05;;;;;;;5.85;1.45;;;17.40;99.90;;;;;;5095667;28;20055;-64
2022/10/24 12:43:34;;;;;;;7.15;2.13;;;17.20;99.90;;;;;;5095190;28;20575;-65
2022/10/24 12:46:32;;;;;;;5.13;1.40;;;17.20;99.90;;;;;;5096346;28;20457;-63
2022/10/24 12:49:18;;;;;;;4.68;1.35;;;17.40;99.90;;;;;;5095270;28;20104;-63
2022/10/24 12:51:45;;;;;;;4.90;1.30;;;17.70;99.90;;;;;;5113284;28;20489;-64
2022/10/24 12:54:16;;;;;;;9.52;2.15;;;17.70;99.90;;;;;;5095738;28;20047;-63
2022/10/24 12:57:25;;;;;;;11.40;1.83;;;17.70;99.90;;;;;;5095678;28;20112;-62
2022/10/24 12:59:54;;;;;;;7.10;1.23;;;18.50;99.90;;;;;;5015125;28;20045;-64
2022/10/24 13:02:58;;;;;;;3.35;1.13;;;19.40;99.90;;;;;;5101746;28;20051;-63
2022/10/24 13:05:50;;;;;;;7.93;1.85;;;19.00;99.90;;;;;;5094765;28;20051;-63